Terminal Aerodrome Forecast
Issued by NWS

Home | Current Version | Previous Version | Text Only | Print | Product List | Glossary On
Versions: 1 2 3 4 5 6 7 8 9 10 11 12 13
706
FTUS45 KVEF 051720
TAFBIH
TAF
KBIH 051720Z 0518/0618 17016G26KT P6SM VCSH SCT120 BKN200
     FM052200 16025G35KT P6SM SCT080 BKN200
     FM060200 16010KT P6SM VCSH BKN060 OVC120=

USA.gov is the U.S. government's official web portal to all federal, state and local government web resources and services.